Decoded Metar for KROG (ROGERS in AR, USA) (IATA:ROG) | Meteo·Mobile Aviation Weather
aviador You're here:

KROG Decoded Metar

ROGERS in AR, USA
Report Time2018-10-18 09:58:00
UTC Time2018-10-18 10:03:21
Flight Rules vfr VFR
Wind090° at 04 kt
W.Decomp.*RWY 02: 1.6 kt HW 3.7 kt RCW
W.Rank090° ranks 14
Current wind is below 090° avg. (6.7)
Visibility9999 m
Phenomena:N/A
Clouds:N/A
Expected CloudBase > 2,000 ft AGL from Temp-Dew spread
CeilingNone
Temp10°C (ISA -2)
Dew Point05°C (71% RH)
AAT7.4°C
QNH1031 hPa
Density Alt607 ft
Elevation1,362 ft
Report Wrong Elevation
Raw Report
METAR KROG 180958Z 09004KT 10SM CLR 10/05 A3046 RMK AO2 SLP313
T01000050 PNO $=

Extra information for KROG:More info

Metar Taf Metar & Taf Last 4 Metars F.Rules Stats Wind Profile Meteogram Temp Stats Airport Information Weather charts Add Link Nearby VenuesMetar ALERT Operation Metar Decoded Social comments

AIRNAV info for KROG